Time;durP1;ratioP1;P1;durP2;ratioP2;P2;SDS_P1;SDS_P2;PMS_P1;PMS_P2;Temp;Humidity;BMP_temperature;BMP_pressure;BME280_temperature;BME280_humidity;BME280_pressure;Samples;Min_cycle;Max_cycle;Signal;HPM_P1;HPM_P2
2023/05/17 00:00:22;;;;;;;6.85;2.15;;;;;14.60;102328.00;;;;5085815;28;20202;-78
2023/05/17 00:02:50;;;;;;;4.30;1.67;;;;;14.60;102324.00;;;;5067743;28;20673;-78
2023/05/17 00:05:17;;;;;;;6.07;1.20;;;;;14.60;102322.00;;;;5067509;28;20208;-78
2023/05/17 00:07:46;;;;;;;3.55;0.88;;;;;14.60;102316.00;;;;5073821;28;20205;-75
2023/05/17 00:10:13;;;;;;;5.32;1.50;;;;;14.60;102319.00;;;;5085197;28;20190;-75
2023/05/17 00:12:42;;;;;;;6.60;1.60;;;;;14.50;102324.00;;;;5089077;28;20209;-75
2023/05/17 00:15:10;;;;;;;1.90;1.25;;;;;14.60;102329.00;;;;5087452;28;20206;-75
2023/05/17 00:17:37;;;;;;;2.78;1.20;;;;;14.50;102324.00;;;;5091230;28;20921;-75
2023/05/17 00:20:05;;;;;;;4.85;1.60;;;;;14.50;102326.00;;;;5091545;28;20190;-78
2023/05/17 00:22:33;;;;;;;5.18;1.65;;;;;14.50;102312.00;;;;5089765;28;20210;-78
2023/05/17 00:25:00;;;;;;;6.18;1.50;;;;;14.50;102313.00;;;;5091973;28;20664;-78
2023/05/17 00:27:27;;;;;;;4.53;1.98;;;;;14.50;102317.00;;;;5091010;28;20189;-78
2023/05/17 00:29:56;;;;;;;8.40;1.98;;;;;14.40;102317.00;;;;5091562;28;20198;-78
2023/05/17 00:32:23;;;;;;;4.50;1.65;;;;;14.40;102316.00;;;;5087578;28;20226;-78
2023/05/17 00:34:51;;;;;;;2.92;1.70;;;;;14.40;102324.00;;;;5072313;28;20575;-76
2023/05/17 00:37:18;;;;;;;3.80;1.20;;;;;14.40;102320.00;;;;5071853;28;20226;-76
2023/05/17 00:39:45;;;;;;;5.70;1.50;;;;;14.40;102324.00;;;;5071482;28;20197;-77
2023/05/17 00:42:14;;;;;;;4.13;1.80;;;;;14.40;102332.00;;;;5086551;28;20217;-76
2023/05/17 00:44:41;;;;;;;2.97;1.55;;;;;14.40;102320.00;;;;5085838;28;20198;-76
2023/05/17 00:47:09;;;;;;;3.65;1.58;;;;;14.40;102320.00;;;;5090331;28;20198;-76
2023/05/17 00:49:37;;;;;;;4.18;1.65;;;;;14.40;102318.00;;;;5088854;28;20210;-76
2023/05/17 00:52:05;;;;;;;3.55;1.40;;;;;14.40;102310.00;;;;5070465;28;20190;-76
2023/05/17 00:54:33;;;;;;;2.63;1.38;;;;;14.30;102318.00;;;;5088133;28;20198;-77
2023/05/17 00:57:00;;;;;;;5.30;2.03;;;;;14.30;102315.00;;;;5090663;28;20210;-76
2023/05/17 00:59:29;;;;;;;4.60;1.48;;;;;14.30;102308.00;;;;5088571;28;20205;-76
2023/05/17 01:01:57;;;;;;;3.13;1.45;;;;;14.30;102307.00;;;;5089510;28;20205;-76
2023/05/17 01:04:26;;;;;;;5.00;1.58;;;;;14.30;102305.00;;;;5088236;28;20194;-77
2023/05/17 01:06:53;;;;;;;6.05;1.90;;;;;14.30;102301.00;;;;5090574;28;20568;-77
2023/05/17 01:09:21;;;;;;;3.75;1.60;;;;;14.30;102311.00;;;;5088451;28;20187;-77
2023/05/17 01:12:01;;;;;;;4.63;1.85;;;;;14.30;102305.00;;;;5091497;28;20199;-76
2023/05/17 01:14:40;;;;;;;4.07;1.88;;;;;14.30;102314.00;;;;5090456;28;20201;-77
2023/05/17 01:17:16;;;;;;;4.85;1.23;;;;;14.30;102304.00;;;;5090697;28;20226;-77
2023/05/17 01:20:05;;;;;;;4.03;1.70;;;;;14.20;102309.00;;;;5089545;28;20682;-77
2023/05/17 01:22:42;;;;;;;3.17;1.23;;;;;14.30;102313.00;;;;5089943;28;20248;-77
2023/05/17 01:25:34;;;;;;;4.60;1.48;;;;;14.30;102306.00;;;;5090347;28;20206;-77
2023/05/17 01:28:05;;;;;;;6.25;1.92;;;;;14.30;102305.00;;;;5089805;28;20206;-77
2023/05/17 01:30:34;;;;;;;5.68;1.90;;;;;14.30;102301.00;;;;5088274;28;20201;-77
2023/05/17 01:33:04;;;;;;;6.70;1.77;;;;;14.30;102301.00;;;;5085368;28;20212;-77
2023/05/17 01:35:31;;;;;;;5.32;1.70;;;;;14.40;102301.00;;;;5087950;28;20236;-77
2023/05/17 01:37:58;;;;;;;3.55;1.70;;;;;14.40;102294.00;;;;5091059;28;20226;-77
2023/05/17 01:40:26;;;;;;;5.10;1.38;;;;;14.40;102304.00;;;;5089168;28;20202;-77
2023/05/17 01:42:57;;;;;;;3.15;1.48;;;;;14.40;102303.00;;;;5090433;28;20690;-77
2023/05/17 01:45:31;;;;;;;5.93;1.90;;;;;14.40;102300.00;;;;5090141;28;20205;-77
2023/05/17 01:48:09;;;;;;;5.05;1.52;;;;;14.40;102289.00;;;;5090332;28;20192;-77
2023/05/17 01:50:38;;;;;;;5.15;1.52;;;;;14.40;102282.00;;;;5088499;28;20830;-77
2023/05/17 01:53:10;;;;;;;3.63;1.75;;;;;14.40;102288.00;;;;5089495;28;20675;-77
2023/05/17 01:55:47;;;;;;;3.65;1.65;;;;;14.40;102298.00;;;;5090333;28;20198;-76
2023/05/17 01:58:15;;;;;;;2.83;1.90;;;;;14.50;102298.00;;;;5086938;28;20225;-77
2023/05/17 02:00:49;;;;;;;3.50;1.73;;;;;14.50;102291.00;;;;5088614;28;20198;-77
2023/05/17 02:03:18;;;;;;;3.38;1.70;;;;;14.60;102293.00;;;;5089610;28;20206;-77
2023/05/17 02:05:46;;;;;;;5.78;1.80;;;;;14.60;102305.00;;;;5090818;28;20186;-77
2023/05/17 02:08:13;;;;;;;7.78;2.15;;;;;14.60;102299.00;;;;5089501;28;20205;-77
2023/05/17 02:10:41;;;;;;;2.92;1.90;;;;;14.70;102303.00;;;;5088912;28;20229;-77
2023/05/17 02:13:08;;;;;;;3.95;1.58;;;;;14.70;102298.00;;;;5089706;28;20198;-77
2023/05/17 02:15:35;;;;;;;3.25;1.83;;;;;14.70;102304.00;;;;5089726;28;20199;-76
2023/05/17 02:18:04;;;;;;;7.43;2.38;;;;;14.70;102294.00;;;;5089885;28;20218;-77
2023/05/17 02:20:31;;;;;;;6.07;2.10;;;;;14.70;102302.00;;;;5089394;28;20206;-77
2023/05/17 02:22:58;;;;;;;3.88;1.45;;;;;14.80;102298.00;;;;5088571;28;20190;-77
2023/05/17 02:25:26;;;;;;;4.78;1.63;;;;;14.80;102291.00;;;;5089473;28;20197;-77
2023/05/17 02:27:53;;;;;;;3.72;1.77;;;;;14.80;102291.00;;;;5077258;28;20190;-77
2023/05/17 02:30:21;;;;;;;6.25;2.22;;;;;14.80;102296.00;;;;5086320;28;21086;-77
2023/05/17 02:32:49;;;;;;;3.10;1.70;;;;;14.80;102292.00;;;;5088005;28;20214;-77
2023/05/17 02:35:18;;;;;;;3.95;1.77;;;;;14.80;102302.00;;;;5073145;28;20195;-77
2023/05/17 02:37:45;;;;;;;7.70;2.13;;;;;14.80;102305.00;;;;5070609;28;20238;-76
2023/05/17 02:40:13;;;;;;;4.32;1.77;;;;;14.80;102307.00;;;;5070598;28;20195;-77
2023/05/17 02:42:40;;;;;;;4.70;1.63;;;;;14.80;102302.00;;;;5087838;28;20237;-76
2023/05/17 02:45:08;;;;;;;3.58;1.58;;;;;14.70;102300.00;;;;5069111;28;20207;-75
2023/05/17 02:47:35;;;;;;;3.25;1.48;;;;;14.70;102300.00;;;;5076390;28;20565;-75
2023/05/17 02:50:03;;;;;;;5.88;1.83;;;;;14.70;102301.00;;;;5084566;28;20973;-76
2023/05/17 02:52:32;;;;;;;6.65;1.65;;;;;14.70;102297.00;;;;5087805;28;20205;-76
2023/05/17 02:54:59;;;;;;;5.10;1.52;;;;;14.70;102296.00;;;;5089213;28;20198;-76
2023/05/17 02:57:26;;;;;;;4.75;1.77;;;;;14.70;102304.00;;;;5088743;28;21194;-76
2023/05/17 02:59:54;;;;;;;6.45;2.05;;;;;14.70;102305.00;;;;5089295;28;20198;-76
2023/05/17 03:02:21;;;;;;;5.75;2.33;;;;;14.70;102315.00;;;;5086964;28;20201;-77
2023/05/17 03:04:48;;;;;;;2.38;1.63;;;;;14.60;102312.00;;;;5090376;28;20199;-76
2023/05/17 03:07:15;;;;;;;5.53;2.10;;;;;14.60;102310.00;;;;5089532;28;20198;-76
2023/05/17 03:09:44;;;;;;;4.53;1.90;;;;;14.60;102318.00;;;;5088502;28;20206;-76
2023/05/17 03:12:11;;;;;;;6.47;1.88;;;;;14.60;102322.00;;;;5088349;28;20255;-76
2023/05/17 03:14:39;;;;;;;3.22;1.55;;;;;14.60;102321.00;;;;5088875;28;20563;-76
2023/05/17 03:17:06;;;;;;;5.30;1.50;;;;;14.60;102323.00;;;;5087612;28;20209;-76
2023/05/17 03:19:33;;;;;;;3.85;2.10;;;;;14.60;102328.00;;;;5088584;28;20198;-76
2023/05/17 03:22:01;;;;;;;4.72;2.30;;;;;14.60;102334.00;;;;5087095;28;20197;-76
2023/05/17 03:24:28;;;;;;;4.68;2.15;;;;;14.50;102338.00;;;;5071457;28;21184;-76
2023/05/17 03:26:56;;;;;;;5.30;1.95;;;;;14.50;102342.00;;;;5083173;28;20195;-76
2023/05/17 03:29:24;;;;;;;4.95;2.10;;;;;14.50;102338.00;;;;5083972;28;20201;-76
2023/05/17 03:31:51;;;;;;;4.50;1.90;;;;;14.50;102346.00;;;;5081747;28;20241;-76
2023/05/17 03:34:18;;;;;;;6.13;2.20;;;;;14.50;102351.00;;;;5086787;28;20586;-76
2023/05/17 03:36:46;;;;;;;8.05;2.42;;;;;14.50;102353.00;;;;5088862;28;20202;-76
2023/05/17 03:39:13;;;;;;;5.53;1.95;;;;;14.50;102355.00;;;;5074435;28;20226;-76
2023/05/17 03:41:41;;;;;;;6.20;2.28;;;;;14.60;102358.00;;;;5088137;28;20233;-76
2023/05/17 03:44:10;;;;;;;3.92;2.05;;;;;14.60;102362.00;;;;5088720;28;20255;-76
2023/05/17 03:46:37;;;;;;;5.22;2.00;;;;;14.60;102359.00;;;;5088023;28;20194;-76
2023/05/17 03:49:04;;;;;;;6.35;2.05;;;;;14.60;102371.00;;;;5078675;28;20206;-76
2023/05/17 03:51:33;;;;;;;5.15;2.25;;;;;14.60;102364.00;;;;5087260;28;20825;-77
2023/05/17 03:54:02;;;;;;;6.30;2.70;;;;;14.70;102371.00;;;;5089132;28;20186;-76
2023/05/17 03:56:30;;;;;;;7.22;2.80;;;;;14.70;102373.00;;;;5088685;28;20198;-76
2023/05/17 03:58:57;;;;;;;4.63;2.03;;;;;14.70;102374.00;;;;5087225;28;20221;-77
2023/05/17 04:01:26;;;;;;;5.97;2.13;;;;;14.70;102373.00;;;;5085979;28;20207;-76
2023/05/17 04:03:53;;;;;;;3.95;2.03;;;;;14.70;102375.00;;;;5088696;28;20190;-76
2023/05/17 04:06:21;;;;;;;5.50;2.25;;;;;14.80;102378.00;;;;5087330;28;20201;-77
2023/05/17 04:08:48;;;;;;;5.97;1.85;;;;;14.80;102377.00;;;;5087008;28;20202;-76
2023/05/17 04:11:22;;;;;;;5.35;2.05;;;;;14.80;102386.00;;;;5085222;28;20205;-76
2023/05/17 04:13:49;;;;;;;7.68;2.60;;;;;14.80;102392.00;;;;5088355;28;20206;-76
2023/05/17 04:16:16;;;;;;;3.38;1.80;;;;;14.80;102390.00;;;;5083960;28;20260;-77
2023/05/17 04:18:45;;;;;;;4.15;1.75;;;;;14.80;102393.00;;;;5084575;28;20232;-76
2023/05/17 04:21:12;;;;;;;5.32;2.28;;;;;14.80;102401.00;;;;5085847;28;20202;-77
2023/05/17 04:23:40;;;;;;;5.07;2.20;;;;;14.80;102401.00;;;;5087535;28;20555;-76
2023/05/17 04:26:07;;;;;;;7.40;2.55;;;;;14.80;102405.00;;;;5072653;28;20203;-77
2023/05/17 04:28:34;;;;;;;4.88;1.88;;;;;14.80;102410.00;;;;5078334;28;20591;-77
2023/05/17 04:31:02;;;;;;;4.05;1.77;;;;;14.80;102423.00;;;;5086493;28;20232;-77
2023/05/17 04:33:29;;;;;;;6.18;2.42;;;;;14.80;102418.00;;;;5085189;28;20206;-77
2023/05/17 04:35:58;;;;;;;5.47;1.88;;;;;14.80;102425.00;;;;5067194;28;20194;-77
2023/05/17 04:38:25;;;;;;;3.65;1.80;;;;;14.90;102426.00;;;;5068626;28;20219;-76
2023/05/17 04:40:53;;;;;;;6.70;2.65;;;;;14.90;102426.00;;;;5087544;28;20279;-77
2023/05/17 04:43:20;;;;;;;7.47;2.20;;;;;14.90;102433.00;;;;5087008;28;20213;-77
2023/05/17 04:45:48;;;;;;;4.05;1.90;;;;;14.90;102433.00;;;;5087480;28;21007;-77
2023/05/17 04:48:18;;;;;;;4.78;2.20;;;;;14.90;102434.00;;;;5086395;28;20251;-77
2023/05/17 04:50:46;;;;;;;3.38;1.92;;;;;15.00;102437.00;;;;5085465;28;20190;-77
2023/05/17 04:53:15;;;;;;;4.75;1.95;;;;;15.00;102438.00;;;;5085230;28;20247;-78
2023/05/17 04:55:42;;;;;;;4.80;1.98;;;;;15.00;102449.00;;;;5087143;28;20198;-76
2023/05/17 04:58:11;;;;;;;3.65;2.08;;;;;15.00;102449.00;;;;5086347;28;20218;-76
2023/05/17 05:00:39;;;;;;;7.20;1.98;;;;;15.10;102445.00;;;;5076818;28;20877;-77
2023/05/17 05:03:06;;;;;;;5.30;2.00;;;;;15.10;102447.00;;;;5089461;28;20202;-76
2023/05/17 05:05:34;;;;;;;6.95;1.95;;;;;15.10;102448.00;;;;5088965;28;20206;-76
2023/05/17 05:08:01;;;;;;;5.05;2.45;;;;;15.20;102456.00;;;;5088849;28;20207;-76
2023/05/17 05:10:30;;;;;;;7.15;2.28;;;;;15.20;102457.00;;;;5091403;28;20217;-76
2023/05/17 05:12:57;;;;;;;5.70;1.85;;;;;15.30;102461.00;;;;5089404;28;20210;-76
2023/05/17 05:15:26;;;;;;;5.00;2.00;;;;;15.30;102465.00;;;;5089402;28;20275;-77
2023/05/17 05:17:53;;;;;;;6.85;1.92;;;;;15.30;102470.00;;;;5087436;28;20266;-76
2023/05/17 05:20:21;;;;;;;6.78;1.65;;;;;15.40;102467.00;;;;5086526;28;20198;-76
2023/05/17 05:22:48;;;;;;;4.78;1.33;;;;;15.40;102473.00;;;;5088338;28;20194;-77
2023/05/17 05:25:15;;;;;;;5.70;1.90;;;;;15.50;102485.00;;;;5085591;28;20566;-76
2023/05/17 05:27:44;;;;;;;3.58;1.50;;;;;15.50;102482.00;;;;5089327;28;20198;-77
2023/05/17 05:30:20;;;;;;;4.88;2.00;;;;;15.50;102491.00;;;;5090516;28;20842;-77
2023/05/17 05:32:48;;;;;;;7.05;1.70;;;;;15.60;102489.00;;;;5090004;28;20194;-77
2023/05/17 05:35:16;;;;;;;4.35;1.33;;;;;15.70;102487.00;;;;5090462;28;20194;-77
2023/05/17 05:37:44;;;;;;;5.63;1.70;;;;;15.70;102497.00;;;;5088160;28;20210;-76
2023/05/17 05:40:12;;;;;;;4.50;1.52;;;;;15.80;102498.00;;;;5083315;28;20716;-77
2023/05/17 05:42:39;;;;;;;6.25;1.58;;;;;15.80;102506.00;;;;5082707;28;20766;-77
2023/05/17 05:45:10;;;;;;;4.60;1.40;;;;;15.90;102507.00;;;;5088219;28;20187;-76
2023/05/17 05:47:37;;;;;;;5.13;1.35;;;;;15.90;102510.00;;;;5086568;28;20198;-76
2023/05/17 05:50:06;;;;;;;8.82;1.60;;;;;16.00;102516.00;;;;5085038;28;20217;-76
2023/05/17 05:52:33;;;;;;;2.88;1.15;;;;;16.10;102510.00;;;;5086851;28;20209;-77
2023/05/17 05:55:00;;;;;;;5.15;1.23;;;;;16.20;102510.00;;;;5084461;28;20199;-77
2023/05/17 05:57:28;;;;;;;4.10;1.02;;;;;16.20;102509.00;;;;5082531;28;20637;-77
2023/05/17 05:59:55;;;;;;;7.60;1.20;;;;;16.30;102518.00;;;;5078911;28;20214;-77
2023/05/17 06:02:24;;;;;;;5.95;1.52;;;;;16.40;102517.00;;;;5088656;28;20201;-76
2023/05/17 06:04:51;;;;;;;10.38;1.55;;;;;16.50;102522.00;;;;5089088;28;20194;-77
2023/05/17 06:07:18;;;;;;;4.63;1.35;;;;;16.50;102521.00;;;;5088770;28;20213;-78
2023/05/17 06:09:46;;;;;;;6.40;1.00;;;;;16.60;102528.00;;;;5086126;28;20190;-77
2023/05/17 06:12:13;;;;;;;5.88;2.08;;;;;16.70;102525.00;;;;5087264;28;20206;-77
2023/05/17 06:14:41;;;;;;;6.40;1.67;;;;;16.70;102527.00;;;;5087144;28;20325;-77
2023/05/17 06:17:08;;;;;;;3.45;0.90;;;;;16.80;102528.00;;;;5088815;28;20198;-76
2023/05/17 06:19:37;;;;;;;4.93;1.48;;;;;16.80;102530.00;;;;5089406;28;20236;-77
2023/05/17 06:22:04;;;;;;;3.85;0.88;;;;;16.90;102526.00;;;;5082997;28;20194;-77
2023/05/17 06:24:32;;;;;;;4.70;1.45;;;;;17.00;102521.00;;;;5087858;28;20648;-76
2023/05/17 06:26:59;;;;;;;4.38;1.15;;;;;17.00;102522.00;;;;5089952;28;20202;-76
2023/05/17 06:29:26;;;;;;;4.28;1.08;;;;;17.10;102524.00;;;;5080586;28;20198;-76
2023/05/17 06:31:55;;;;;;;5.72;1.30;;;;;17.20;102534.00;;;;5089423;28;20234;-77
2023/05/17 06:34:22;;;;;;;6.18;1.35;;;;;17.20;102535.00;;;;5089590;28;20206;-76
2023/05/17 06:36:51;;;;;;;4.32;0.98;;;;;17.20;102530.00;;;;5088571;28;20198;-77
2023/05/17 06:39:18;;;;;;;2.45;0.90;;;;;17.30;102535.00;;;;5087773;28;20718;-76
2023/05/17 06:41:45;;;;;;;6.30;1.08;;;;;17.30;102538.00;;;;5088785;28;20691;-75
2023/05/17 06:44:13;;;;;;;6.50;1.30;;;;;17.30;102546.00;;;;5088813;28;20943;-76
2023/05/17 06:46:40;;;;;;;7.43;1.35;;;;;17.40;102549.00;;;;5089506;28;20186;-75
2023/05/17 06:49:08;;;;;;;5.53;1.58;;;;;17.40;102555.00;;;;5085560;28;20652;-75
2023/05/17 06:51:35;;;;;;;5.07;0.65;;;;;17.50;102552.00;;;;5085249;28;20309;-76
2023/05/17 06:54:04;;;;;;;3.08;0.70;;;;;17.50;102552.00;;;;5087437;28;20197;-77
2023/05/17 06:56:31;;;;;;;5.47;1.00;;;;;17.60;102558.00;;;;5088189;28;20683;-75
2023/05/17 06:58:59;;;;;;;6.07;0.95;;;;;17.70;102554.00;;;;5089045;28;20226;-76
2023/05/17 07:01:26;;;;;;;5.15;0.90;;;;;17.80;102549.00;;;;5088040;28;20206;-76
2023/05/17 07:03:54;;;;;;;2.90;0.80;;;;;17.80;102557.00;;;;5083330;28;20206;-76
2023/05/17 07:06:21;;;;;;;3.40;0.60;;;;;17.90;102557.00;;;;5083421;28;20295;-75
2023/05/17 07:08:48;;;;;;;5.03;0.90;;;;;17.90;102557.00;;;;5085531;28;20209;-76
2023/05/17 07:11:17;;;;;;;1.42;0.60;;;;;18.00;102557.00;;;;5076480;28;20206;-75
2023/05/17 07:13:44;;;;;;;3.78;1.27;;;;;18.00;102564.00;;;;5084626;28;20205;-76
2023/05/17 07:16:12;;;;;;;7.63;1.40;;;;;18.10;102561.00;;;;5088687;28;20251;-77
2023/05/17 07:18:39;;;;;;;6.60;1.05;;;;;18.30;102564.00;;;;5086700;28;20202;-76
2023/05/17 07:21:07;;;;;;;5.07;0.70;;;;;18.40;102570.00;;;;5084782;28;20724;-75
2023/05/17 07:23:34;;;;;;;1.55;0.60;;;;;18.50;102580.00;;;;5080779;28;20194;-78
2023/05/17 07:26:01;;;;;;;6.55;1.10;;;;;18.60;102576.00;;;;5086610;28;20190;-77
2023/05/17 07:28:30;;;;;;;2.72;0.65;;;;;18.60;102583.00;;;;5080382;28;20206;-77
2023/05/17 07:30:58;;;;;;;4.85;1.20;;;;;18.60;102587.00;;;;5087587;28;20237;-77
2023/05/17 07:33:25;;;;;;;3.67;0.90;;;;;18.60;102588.00;;;;5087541;28;20194;-77
2023/05/17 07:35:52;;;;;;;2.50;0.80;;;;;18.60;102588.00;;;;5086055;28;20198;-77
2023/05/17 07:38:19;;;;;;;4.57;0.98;;;;;18.50;102599.00;;;;5087017;28;20248;-78
2023/05/17 07:40:47;;;;;;;2.63;0.60;;;;;18.40;102597.00;;;;5087023;28;20374;-78
2023/05/17 07:43:14;;;;;;;2.35;1.00;;;;;18.40;102599.00;;;;5067669;28;20872;-77
2023/05/17 07:45:43;;;;;;;4.72;0.93;;;;;18.40;102603.00;;;;5068616;28;20191;-77
2023/05/17 07:48:11;;;;;;;4.68;0.90;;;;;18.40;102607.00;;;;5085157;28;20199;-77
2023/05/17 07:50:38;;;;;;;3.05;0.43;;;;;18.30;102606.00;;;;5087524;28;20218;-77
2023/05/17 07:53:05;;;;;;;5.63;0.60;;;;;18.30;102609.00;;;;5086777;28;20195;-78
2023/05/17 07:55:33;;;;;;;2.78;0.77;;;;;18.30;102616.00;;;;5087900;28;20707;-77
2023/05/17 07:58:00;;;;;;;3.63;0.70;;;;;18.20;102608.00;;;;5088001;28;20197;-77
2023/05/17 08:00:28;;;;;;;4.18;0.65;;;;;18.20;102616.00;;;;5084007;28;20222;-77
2023/05/17 08:02:57;;;;;;;2.22;0.45;;;;;18.30;102612.00;;;;5067434;28;20199;-78
2023/05/17 08:05:24;;;;;;;4.78;0.65;;;;;18.30;102615.00;;;;5087125;28;20218;-77
2023/05/17 08:07:52;;;;;;;2.08;0.60;;;;;18.30;102622.00;;;;5067870;28;20665;-78
2023/05/17 08:10:20;;;;;;;4.55;0.93;;;;;18.30;102613.00;;;;5069107;28;20199;-78
2023/05/17 08:12:47;;;;;;;2.50;0.52;;;;;18.30;102620.00;;;;5077828;28;20293;-77
2023/05/17 08:15:14;;;;;;;2.22;0.43;;;;;18.30;102617.00;;;;5076974;28;20206;-77
2023/05/17 08:17:42;;;;;;;1.88;0.50;;;;;18.30;102626.00;;;;5087074;28;20201;-78
2023/05/17 08:20:11;;;;;;;3.17;0.70;;;;;18.30;102612.00;;;;5086979;28;20237;-77
2023/05/17 08:22:38;;;;;;;3.88;0.60;;;;;18.30;102618.00;;;;5076809;28;20202;-78
2023/05/17 08:25:07;;;;;;;4.30;0.77;;;;;18.50;102616.00;;;;5079572;28;20190;-77
2023/05/17 08:27:34;;;;;;;3.60;0.50;;;;;18.60;102621.00;;;;5081367;28;20213;-78
2023/05/17 08:30:01;;;;;;;4.13;0.75;;;;;18.60;102623.00;;;;5088048;28;20209;-78
2023/05/17 08:32:28;;;;;;;2.70;0.40;;;;;18.70;102623.00;;;;5088371;28;20245;-78
2023/05/17 08:34:56;;;;;;;6.07;0.80;;;;;18.80;102619.00;;;;5090015;28;20191;-78
2023/05/17 08:37:25;;;;;;;3.25;0.73;;;;;18.80;102623.00;;;;5091960;28;20197;-78
2023/05/17 08:39:52;;;;;;;1.92;0.30;;;;;18.80;102618.00;;;;5092334;28;20232;-77
2023/05/17 08:42:24;;;;;;;4.55;1.10;;;;;18.80;102620.00;;;;5091256;28;20568;-78
2023/05/17 08:44:51;;;;;;;2.42;0.63;;;;;18.90;102612.00;;;;5091968;28;20278;-77
2023/05/17 08:47:28;;;;;;;2.70;0.50;;;;;19.00;102611.00;;;;5090610;28;20209;-78
2023/05/17 08:49:59;;;;;;;3.03;0.55;;;;;19.20;102621.00;;;;5081170;28;20202;-78
2023/05/17 08:52:29;;;;;;;2.65;0.50;;;;;19.30;102613.00;;;;5090184;28;20195;-78
2023/05/17 08:54:56;;;;;;;3.70;0.82;;;;;19.50;102625.00;;;;5088784;28;20229;-77
2023/05/17 08:57:25;;;;;;;2.70;0.95;;;;;19.70;102639.00;;;;5087394;28;20743;-78
2023/05/17 08:59:54;;;;;;;1.92;0.45;;;;;19.90;102631.00;;;;5091159;28;20217;-77
2023/05/17 09:02:22;;;;;;;3.40;0.93;;;;;20.00;102629.00;;;;5088085;28;20256;-78
2023/05/17 09:04:54;;;;;;;5.00;0.65;;;;;20.20;102631.00;;;;5082671;28;20201;-77
2023/05/17 09:07:21;;;;;;;4.45;0.50;;;;;20.40;102630.00;;;;5086871;28;20220;-78
2023/05/17 09:09:52;;;;;;;2.67;0.85;;;;;20.50;102632.00;;;;5088131;28;20226;-77
2023/05/17 09:12:20;;;;;;;4.75;0.70;;;;;20.60;102633.00;;;;5087126;28;20257;-77
2023/05/17 09:14:47;;;;;;;2.97;0.95;;;;;20.70;102645.00;;;;5085335;28;20198;-77
2023/05/17 09:17:16;;;;;;;3.20;0.57;;;;;20.80;102643.00;;;;5084678;28;20205;-77
2023/05/17 09:19:45;;;;;;;1.70;0.32;;;;;20.80;102650.00;;;;5088057;28;20229;-77
2023/05/17 09:22:14;;;;;;;1.92;0.63;;;;;20.90;102645.00;;;;5081859;28;20190;-78
2023/05/17 09:24:42;;;;;;;1.80;0.32;;;;;21.00;102635.00;;;;5087714;28;20252;-77
2023/05/17 09:27:15;;;;;;;3.67;0.95;;;;;21.10;102639.00;;;;5088258;28;20575;-78
2023/05/17 09:29:46;;;;;;;3.38;1.05;;;;;21.20;102651.00;;;;5082751;28;20198;-78
2023/05/17 09:32:16;;;;;;;4.13;0.82;;;;;21.20;102653.00;;;;5086162;28;20237;-78
2023/05/17 09:34:45;;;;;;;1.95;0.40;;;;;21.20;102659.00;;;;5086039;28;20202;-77
2023/05/17 09:37:14;;;;;;;3.85;0.40;;;;;21.20;102661.00;;;;5087761;28;20259;-78
2023/05/17 09:39:43;;;;;;;1.30;0.60;;;;;21.20;102657.00;;;;5088367;28;20692;-78
2023/05/17 09:42:12;;;;;;;2.63;0.55;;;;;21.20;102652.00;;;;5087223;28;20216;-77
2023/05/17 09:44:52;;;;;;;2.95;0.65;;;;;21.30;102646.00;;;;5081244;28;20684;-78
2023/05/17 09:47:27;;;;;;;3.33;0.68;;;;;21.40;102655.00;;;;5070110;28;20203;-79
2023/05/17 09:49:55;;;;;;;1.08;0.38;;;;;21.60;102667.00;;;;5088674;28;20193;-79
2023/05/17 09:52:24;;;;;;;2.05;0.50;;;;;21.60;102669.00;;;;5089168;28;20205;-78
2023/05/17 09:54:55;;;;;;;1.90;0.52;;;;;21.60;102660.00;;;;5090916;28;20562;-78
2023/05/17 09:57:26;;;;;;;3.08;0.40;;;;;21.60;102648.00;;;;5089238;28;20668;-78
2023/05/17 09:59:56;;;;;;;1.73;0.40;;;;;21.70;102656.00;;;;5089761;28;20213;-78
2023/05/17 10:02:27;;;;;;;1.63;0.45;;;;;21.80;102656.00;;;;5090299;28;21100;-77
2023/05/17 10:04:57;;;;;;;1.13;0.50;;;;;21.90;102664.00;;;;5090838;28;20760;-77
2023/05/17 10:07:26;;;;;;;4.15;0.85;;;;;22.00;102657.00;;;;5085124;28;20745;-78
2023/05/17 10:09:56;;;;;;;2.25;0.60;;;;;22.00;102656.00;;;;5089276;28;20563;-78
2023/05/17 10:12:28;;;;;;;4.32;0.82;;;;;22.10;102660.00;;;;5087552;28;20205;-76
2023/05/17 10:14:58;;;;;;;2.72;0.65;;;;;22.20;102659.00;;;;5090964;28;20206;-75
2023/05/17 10:17:28;;;;;;;2.60;0.40;;;;;22.20;102671.00;;;;5069108;28;20664;-76
2023/05/17 10:19:56;;;;;;;2.33;0.60;;;;;22.20;102664.00;;;;5080617;28;20232;-76
2023/05/17 10:22:24;;;;;;;3.28;0.80;;;;;22.30;102667.00;;;;5075782;28;20656;-77
2023/05/17 10:24:52;;;;;;;3.03;0.50;;;;;22.30;102659.00;;;;5081708;28;20198;-78
2023/05/17 10:27:20;;;;;;;2.92;0.63;;;;;22.40;102653.00;;;;5089293;28;20217;-77
2023/05/17 10:29:49;;;;;;;3.70;0.60;;;;;22.40;102665.00;;;;5087350;28;20330;-77
2023/05/17 10:32:21;;;;;;;2.63;0.45;;;;;22.40;102666.00;;;;5087484;28;20241;-77
2023/05/17 10:34:50;;;;;;;3.35;0.40;;;;;22.40;102670.00;;;;5089479;28;20194;-77
2023/05/17 10:37:19;;;;;;;2.95;0.65;;;;;22.30;102664.00;;;;5080599;28;20198;-77
2023/05/17 10:39:47;;;;;;;2.63;0.60;;;;;22.30;102660.00;;;;5089130;28;20209;-78
2023/05/17 10:42:17;;;;;;;3.22;1.17;;;;;22.30;102663.00;;;;5083669;28;20726;-79
2023/05/17 10:44:45;;;;;;;2.10;0.70;;;;;22.40;102668.00;;;;5090068;28;20205;-77
2023/05/17 10:47:15;;;;;;;4.60;0.57;;;;;22.30;102659.00;;;;5071550;28;20221;-77
2023/05/17 10:49:46;;;;;;;2.72;0.65;;;;;22.40;102660.00;;;;5085283;28;20223;-78
2023/05/17 10:52:16;;;;;;;3.50;0.77;;;;;22.50;102662.00;;;;5089549;28;20202;-77
2023/05/17 10:54:47;;;;;;;2.80;0.50;;;;;22.50;102663.00;;;;5086922;28;20680;-78
2023/05/17 10:57:35;;;;;;;1.98;0.60;;;;;22.50;102663.00;;;;5085328;28;20401;-77
2023/05/17 11:00:06;;;;;;;1.50;0.35;;;;;22.60;102664.00;;;;5088824;28;20218;-77
2023/05/17 11:02:39;;;;;;;1.50;0.60;;;;;22.60;102675.00;;;;5088315;28;20194;-77
2023/05/17 11:05:07;;;;;;;3.45;0.70;;;;;22.60;102668.00;;;;5085965;28;20198;-78
2023/05/17 11:07:36;;;;;;;3.33;0.63;;;;;22.60;102669.00;;;;5083264;28;20210;-77
2023/05/17 11:10:10;;;;;;;2.85;0.90;;;;;22.60;102665.00;;;;5086485;28;20202;-78
2023/05/17 11:12:39;;;;;;;4.20;0.80;;;;;22.70;102674.00;;;;5079325;28;20726;-78
2023/05/17 11:15:09;;;;;;;1.75;0.60;;;;;22.60;102663.00;;;;5087224;28;20186;-78
2023/05/17 11:17:50;;;;;;;1.92;0.40;;;;;22.50;102661.00;;;;5086706;28;20226;-77
2023/05/17 11:20:35;;;;;;;1.30;0.30;;;;;22.50;102660.00;;;;5081907;28;20217;-78
2023/05/17 11:23:04;;;;;;;6.80;1.30;;;;;22.60;102667.00;;;;5078323;28;20202;-78
2023/05/17 11:25:34;;;;;;;3.60;0.82;;;;;22.60;102668.00;;;;5087791;28;20198;-80
2023/05/17 11:28:07;;;;;;;1.15;0.35;;;;;22.50;102665.00;;;;5087351;28;20194;-79
2023/05/17 11:30:39;;;;;;;2.72;0.65;;;;;22.60;102661.00;;;;5087839;28;20217;-79
2023/05/17 11:33:09;;;;;;;2.65;0.57;;;;;22.50;102665.00;;;;5085999;28;20208;-79
2023/05/17 11:35:39;;;;;;;2.47;0.50;;;;;22.50;102675.00;;;;5085739;28;20277;-79
2023/05/17 11:38:14;;;;;;;1.15;0.38;;;;;22.50;102677.00;;;;5086266;28;20569;-79
2023/05/17 11:40:42;;;;;;;1.38;0.38;;;;;22.60;102669.00;;;;5086483;28;20213;-80
2023/05/17 11:43:14;;;;;;;3.50;0.63;;;;;22.50;102675.00;;;;5086399;28;20202;-79
2023/05/17 11:45:46;;;;;;;1.50;0.63;;;;;22.50;102674.00;;;;5080031;28;20206;-79
2023/05/17 11:48:16;;;;;;;4.38;0.75;;;;;22.50;102679.00;;;;5085174;28;20206;-79
2023/05/17 11:50:45;;;;;;;4.78;0.98;;;;;22.50;102678.00;;;;5084383;28;20228;-78
2023/05/17 11:53:13;;;;;;;3.38;0.90;;;;;22.50;102665.00;;;;5084689;28;20209;-79
2023/05/17 11:55:41;;;;;;;3.55;0.77;;;;;22.50;102667.00;;;;5080573;28;20191;-80
2023/05/17 11:58:10;;;;;;;2.55;0.65;;;;;22.40;102667.00;;;;5067114;28;20201;-79
2023/05/17 12:00:39;;;;;;;2.80;0.50;;;;;22.40;102668.00;;;;5070408;28;20718;-79
2023/05/17 12:03:27;;;;;;;4.13;1.05;;;;;22.20;102670.00;;;;5084529;28;20268;-79
2023/05/17 12:06:03;;;;;;;4.15;0.70;;;;;22.20;102667.00;;;;5083215;28;20194;-81
2023/05/17 12:08:32;;;;;;;3.55;0.90;;;;;22.20;102659.00;;;;5077133;28;20198;-79
2023/05/17 12:11:00;;;;;;;10.88;1.02;;;;;22.20;102654.00;;;;5079128;28;21052;-80
2023/05/17 12:13:29;;;;;;;3.30;0.80;;;;;22.20;102654.00;;;;5078023;28;20195;-80
2023/05/17 12:16:00;;;;;;;3.05;0.90;;;;;22.20;102670.00;;;;5077633;28;20187;-79